Terminal Aerodrome Forecast
Issued by NWS Brownsville, TX

Home | Current Version | Previous Version | Text Only | Print | Product List | Glossary On
Versions: 1 2 3 4 5 6 7 8 9 10 11 12 13 14 15 16 17 18 19 20 21
548
FTUS44 KBRO 200522
TAFHRL
TAF
KHRL 200522Z 2006/2106 15006KT 4SM BR OVC006
     FM200830 18005KT 1SM BR OVC004
      TEMPO 2009/2013 1/2SM FG OVC002
     FM201600 17006KT 4SM BR BKN007
     FM202000 20010KT P6SM BKN015
     FM210000 15007KT P6SM SCT015 BKN035=

USA.gov is the U.S. government's official web portal to all federal, state and local government web resources and services.